createdAt,value
2022-10-03T00:01:39.580Z,13.10
2022-10-03T00:04:45.728Z,13.00
2022-10-03T00:07:32.239Z,13.00
2022-10-03T00:10:17.552Z,13.00
2022-10-03T00:13:08.564Z,13.10
2022-10-03T00:15:46.174Z,13.20
2022-10-03T00:18:35.071Z,13.30
2022-10-03T00:21:36.778Z,13.20
2022-10-03T00:24:23.192Z,13.20
2022-10-03T00:26:59.672Z,13.10
2022-10-03T00:29:43.645Z,13.10
2022-10-03T00:32:31.744Z,13.20
2022-10-03T00:35:23.852Z,13.10
2022-10-03T00:38:13.852Z,13.10
2022-10-03T00:41:17.356Z,13.20
2022-10-03T00:44:25.857Z,13.10
2022-10-03T00:47:45.943Z,13.00
2022-10-03T00:50:53.635Z,13.00
2022-10-03T00:53:40.121Z,13.00
2022-10-03T00:56:44.574Z,13.00
2022-10-03T00:59:33.409Z,12.90
2022-10-03T01:02:30.102Z,12.90
2022-10-03T01:05:16.227Z,12.90
2022-10-03T01:08:32.512Z,12.90
2022-10-03T01:11:17.272Z,12.80
2022-10-03T01:13:59.240Z,12.80
2022-10-03T01:16:40.279Z,12.90
2022-10-03T01:19:37.541Z,12.90
2022-10-03T01:22:31.408Z,12.90
2022-10-03T01:25:08.585Z,12.80
2022-10-03T01:27:58.938Z,12.90
2022-10-03T01:30:36.884Z,12.80
2022-10-03T01:33:11.473Z,12.90
2022-10-03T01:36:05.572Z,12.90
2022-10-03T01:38:43.170Z,12.80
2022-10-03T01:41:25.046Z,12.70
2022-10-03T01:44:01.272Z,12.70
2022-10-03T01:46:40.262Z,12.60
2022-10-03T01:49:19.109Z,12.60
2022-10-03T01:51:59.672Z,12.60
2022-10-03T01:54:41.507Z,12.60
2022-10-03T01:57:19.727Z,12.70
2022-10-03T01:59:58.827Z,12.70
2022-10-03T02:02:36.827Z,12.70
2022-10-03T02:05:13.835Z,12.70
2022-10-03T02:07:51.735Z,12.70
2022-10-03T02:10:37.103Z,12.60
2022-10-03T02:13:14.767Z,12.50
2022-10-03T02:15:56.848Z,12.40
2022-10-03T02:18:44.981Z,12.40
2022-10-03T02:21:18.966Z,12.40
2022-10-03T02:23:48.582Z,12.40
2022-10-03T02:26:46.576Z,12.40
2022-10-03T02:30:05.932Z,12.40
2022-10-03T02:33:11.834Z,12.30
2022-10-03T02:36:27.218Z,12.20
2022-10-03T02:39:19.841Z,12.10
2022-10-03T02:42:34.618Z,12.10
2022-10-03T02:45:35.041Z,12.10
2022-10-03T02:48:46.958Z,12.10
2022-10-03T02:52:09.996Z,12.00
2022-10-03T02:54:58.796Z,12.10
2022-10-03T02:58:18.899Z,12.00
2022-10-03T03:01:41.556Z,12.10
2022-10-03T03:05:05.990Z,12.10
2022-10-03T03:07:59.287Z,12.00
2022-10-03T03:11:30.554Z,12.10
2022-10-03T03:14:42.244Z,12.00
2022-10-03T03:17:25.080Z,12.10
2022-10-03T03:20:12.919Z,12.10
2022-10-03T03:23:09.644Z,12.20
2022-10-03T03:26:30.249Z,12.10
2022-10-03T03:29:10.606Z,11.90
2022-10-03T03:31:54.550Z,11.90
2022-10-03T03:34:31.803Z,11.90
2022-10-03T03:37:07.467Z,11.90
2022-10-03T03:39:52.957Z,12.00
2022-10-03T03:42:49.066Z,12.10
2022-10-03T03:45:48.484Z,12.10
2022-10-03T03:48:50.515Z,12.10
2022-10-03T03:51:40.283Z,12.10
2022-10-03T03:54:57.684Z,12.00
2022-10-03T03:58:03.669Z,12.10
2022-10-03T04:00:50.835Z,12.20
2022-10-03T04:03:49.388Z,12.20
2022-10-03T04:06:37.338Z,12.10
2022-10-03T04:09:32.814Z,12.10
2022-10-03T04:12:11.427Z,12.10
2022-10-03T04:15:37.891Z,12.10
2022-10-03T04:18:58.021Z,12.10
2022-10-03T04:22:12.007Z,12.10
2022-10-03T04:25:20.650Z,12.00
2022-10-03T04:28:40.227Z,12.00
2022-10-03T04:31:39.516Z,11.80
2022-10-03T04:34:34.943Z,11.80
2022-10-03T04:37:28.440Z,11.80
2022-10-03T04:40:25.479Z,11.70
2022-10-03T04:43:07.410Z,11.60
2022-10-03T04:45:55.799Z,11.50
2022-10-03T04:48:47.426Z,11.40
2022-10-03T04:51:22.273Z,11.30
2022-10-03T04:53:59.435Z,11.20
2022-10-03T04:56:45.668Z,11.10
2022-10-03T04:59:50.440Z,11.00
2022-10-03T05:02:34.559Z,10.80
2022-10-03T05:05:48.639Z,10.70
2022-10-03T05:08:33.294Z,10.50
2022-10-03T05:11:30.952Z,10.40
2022-10-03T05:14:09.061Z,10.30
2022-10-03T05:16:46.485Z,10.30
2022-10-03T05:19:42.618Z,10.20
2022-10-03T05:22:28.864Z,10.20
2022-10-03T05:25:12.256Z,10.20
2022-10-03T05:27:52.056Z,10.20
2022-10-03T05:30:37.375Z,10.20
2022-10-03T05:33:31.558Z,10.00
2022-10-03T05:36:19.807Z,9.90
2022-10-03T05:39:21.835Z,9.90
2022-10-03T05:42:22.111Z,9.80
2022-10-03T05:45:01.993Z,9.80
2022-10-03T05:47:46.650Z,9.70
2022-10-03T05:50:57.786Z,9.70
2022-10-03T05:54:32.440Z,9.60
2022-10-03T05:58:25.529Z,9.70
2022-10-03T06:01:33.199Z,9.60
2022-10-03T06:04:38.860Z,9.60
2022-10-03T06:07:23.411Z,9.60
2022-10-03T06:10:25.737Z,9.60
2022-10-03T06:13:11.885Z,9.70
2022-10-03T06:16:04.278Z,9.80
2022-10-03T06:19:07.335Z,9.80
2022-10-03T06:22:38.770Z,9.90
2022-10-03T06:26:07.265Z,10.10
2022-10-03T06:29:20.982Z,10.30
2022-10-03T06:32:21.732Z,10.50
2022-10-03T06:35:37.804Z,10.70
2022-10-03T06:39:04.267Z,10.90
2022-10-03T06:42:20.597Z,11.00
2022-10-03T06:45:18.612Z,11.10
2022-10-03T06:48:05.768Z,11.20
2022-10-03T06:50:54.605Z,11.00
2022-10-03T06:53:40.506Z,11.10
2022-10-03T06:56:56.170Z,11.30
2022-10-03T06:59:56.394Z,11.40
2022-10-03T07:03:14.308Z,11.50
2022-10-03T07:06:10.243Z,11.60
2022-10-03T07:09:38.418Z,11.80
2022-10-03T07:12:54.688Z,11.90
2022-10-03T07:16:25.675Z,12.20
2022-10-03T07:19:28.452Z,12.30
2022-10-03T07:22:49.045Z,12.60
2022-10-03T07:25:54.300Z,12.80
2022-10-03T07:29:08.625Z,12.80
2022-10-03T07:32:23.419Z,12.80
2022-10-03T07:36:02.915Z,12.90
2022-10-03T07:39:16.695Z,13.20
2022-10-03T07:42:16.141Z,13.10
2022-10-03T07:45:34.581Z,13.20
2022-10-03T07:48:55.097Z,13.40
2022-10-03T07:51:43.464Z,13.40
2022-10-03T07:54:43.341Z,13.60
2022-10-03T07:57:56.446Z,13.60
2022-10-03T08:00:27.426Z,13.50
2022-10-03T08:03:57.674Z,13.30
2022-10-03T08:06:38.779Z,13.30
2022-10-03T08:09:49.423Z,13.50
2022-10-03T08:13:09.147Z,13.50
2022-10-03T08:16:03.538Z,13.80
2022-10-03T08:19:10.646Z,14.30
2022-10-03T08:21:58.132Z,14.20
2022-10-03T08:25:08.251Z,14.40
2022-10-03T08:28:09.747Z,14.50
2022-10-03T08:31:01.024Z,14.90
2022-10-03T08:34:07.431Z,15.20
2022-10-03T08:37:17.975Z,15.30
2022-10-03T08:40:53.633Z,15.50
2022-10-03T08:44:07.578Z,15.80
2022-10-03T08:47:26.776Z,15.80
2022-10-03T08:50:44.791Z,15.70
2022-10-03T08:53:56.154Z,15.80
2022-10-03T08:56:40.487Z,16.00
2022-10-03T08:59:57.803Z,16.10
2022-10-03T09:03:31.486Z,16.10
2022-10-03T09:07:05.457Z,16.30
2022-10-03T09:10:42.475Z,16.60
2022-10-03T09:13:53.284Z,16.40
2022-10-03T09:16:54.157Z,16.60
2022-10-03T09:20:25.720Z,16.50
2022-10-03T09:23:38.855Z,16.20
2022-10-03T09:26:50.032Z,16.10
2022-10-03T09:29:52.001Z,16.10
2022-10-03T09:33:07.381Z,15.90
2022-10-03T09:35:54.015Z,16.10
2022-10-03T09:39:14.888Z,15.80
2022-10-03T09:42:26.232Z,16.10
2022-10-03T09:45:22.103Z,16.00
2022-10-03T09:48:24.319Z,15.80
2022-10-03T09:51:36.253Z,15.70
2022-10-03T09:54:39.528Z,16.10
2022-10-03T09:58:02.680Z,16.20
2022-10-03T10:00:54.572Z,16.50
2022-10-03T10:04:09.241Z,16.30
2022-10-03T10:07:27.414Z,16.10
2022-10-03T10:10:54.116Z,16.20
2022-10-03T10:14:14.966Z,16.30
2022-10-03T10:17:30.643Z,16.00
2022-10-03T10:20:25.125Z,16.40
2022-10-03T10:23:20.847Z,16.50
2022-10-03T10:26:45.295Z,16.70
2022-10-03T10:30:05.865Z,16.90
2022-10-03T10:33:43.599Z,16.70
2022-10-03T10:37:02.957Z,16.80
2022-10-03T10:40:03.867Z,16.80
2022-10-03T10:43:42.447Z,17.00
2022-10-03T10:47:18.082Z,16.80
2022-10-03T10:50:44.145Z,17.10
2022-10-03T10:54:04.978Z,17.20
2022-10-03T10:57:23.661Z,17.30
2022-10-03T11:00:22.036Z,17.00
2022-10-03T11:04:14.399Z,17.20
2022-10-03T11:07:12.780Z,17.10
2022-10-03T11:10:27.660Z,17.70
2022-10-03T11:13:44.168Z,17.50
2022-10-03T11:17:12.259Z,17.60
2022-10-03T11:20:33.945Z,17.50
2022-10-03T11:23:57.452Z,18.00
2022-10-03T11:27:17.394Z,18.00
2022-10-03T11:30:25.259Z,18.40
2022-10-03T11:33:56.753Z,18.60
2022-10-03T11:37:14.232Z,18.40
2022-10-03T11:39:50.452Z,18.40
2022-10-03T11:42:39.752Z,18.00
2022-10-03T11:45:27.557Z,17.90
2022-10-03T11:48:13.172Z,17.60
2022-10-03T11:50:47.705Z,18.00
2022-10-03T11:53:40.331Z,18.00
2022-10-03T11:56:30.043Z,17.80
2022-10-03T11:59:26.628Z,18.00
2022-10-03T12:02:12.127Z,18.00
2022-10-03T12:04:58.390Z,17.40
2022-10-03T12:08:02.819Z,17.40
2022-10-03T12:10:43.420Z,17.00
2022-10-03T12:13:17.285Z,17.00
2022-10-03T12:15:49.092Z,17.00
2022-10-03T12:18:29.930Z,16.70
2022-10-03T12:21:12.009Z,16.30
2022-10-03T12:24:01.067Z,16.10
2022-10-03T12:26:45.050Z,16.30
2022-10-03T12:29:16.235Z,16.40
2022-10-03T12:31:56.212Z,16.80
2022-10-03T12:34:45.632Z,17.30
2022-10-03T12:37:43.368Z,17.70
2022-10-03T12:40:20.374Z,18.30
2022-10-03T12:43:04.407Z,18.20
2022-10-03T12:45:40.931Z,18.10
2022-10-03T12:48:47.942Z,18.20
2022-10-03T12:51:37.851Z,18.40
2022-10-03T12:54:21.563Z,18.30
2022-10-03T12:57:20.039Z,18.40
2022-10-03T12:59:57.894Z,18.30
2022-10-03T13:02:35.345Z,18.70
2022-10-03T13:05:34.836Z,18.70
2022-10-03T13:08:07.977Z,18.90
2022-10-03T13:10:42.963Z,18.80
2022-10-03T13:13:33.611Z,19.00
2022-10-03T13:16:19.725Z,18.80
2022-10-03T13:19:04.312Z,18.70
2022-10-03T13:22:06.178Z,18.50
2022-10-03T13:24:40.535Z,18.70
2022-10-03T13:27:42.775Z,18.30
2022-10-03T13:30:21.600Z,18.60
2022-10-03T13:32:56.559Z,18.40
2022-10-03T13:35:52.937Z,18.10
2022-10-03T13:39:02.635Z,18.40
2022-10-03T13:41:43.411Z,18.30
2022-10-03T13:44:18.806Z,18.60
2022-10-03T13:47:10.977Z,18.60
2022-10-03T13:49:53.780Z,18.40
2022-10-03T13:52:35.088Z,19.00
2022-10-03T13:55:21.193Z,18.90
2022-10-03T13:58:32.637Z,18.80
2022-10-03T14:01:38.449Z,18.50
2022-10-03T14:04:34.625Z,18.40
2022-10-03T14:07:22.483Z,18.20
2022-10-03T14:10:13.026Z,18.50
2022-10-03T14:12:59.406Z,18.60
2022-10-03T14:15:50.533Z,18.80
2022-10-03T14:18:34.508Z,18.10
2022-10-03T14:21:40.504Z,18.10
2022-10-03T14:24:39.811Z,17.90
2022-10-03T14:27:49.676Z,18.10
2022-10-03T14:30:23.351Z,18.10
2022-10-03T14:33:18.344Z,18.00
2022-10-03T14:36:26.401Z,18.10
2022-10-03T14:39:35.753Z,18.10
2022-10-03T14:42:26.578Z,18.20
2022-10-03T14:44:59.921Z,18.30
2022-10-03T14:47:37.531Z,18.40
2022-10-03T14:50:08.169Z,18.10
2022-10-03T14:52:46.789Z,18.10
2022-10-03T14:55:22.351Z,18.00
2022-10-03T14:58:11.838Z,18.10
2022-10-03T15:00:48.758Z,18.30
2022-10-03T15:03:38.256Z,18.60
2022-10-03T15:06:41.405Z,18.90
2022-10-03T15:09:23.427Z,18.80
2022-10-03T15:12:04.409Z,19.30
2022-10-03T15:14:39.528Z,19.40
2022-10-03T15:17:29.776Z,19.60
2022-10-03T15:20:10.029Z,19.90
2022-10-03T15:22:50.946Z,20.00
2022-10-03T15:25:22.534Z,19.60
2022-10-03T15:27:57.636Z,19.90
2022-10-03T15:30:32.283Z,20.00
2022-10-03T15:33:12.639Z,20.50
2022-10-03T15:35:46.908Z,20.10
2022-10-03T15:38:19.549Z,19.70
2022-10-03T15:40:54.491Z,19.70
2022-10-03T15:43:35.144Z,19.50
2022-10-03T15:46:14.067Z,19.30
2022-10-03T15:48:47.493Z,19.00
2022-10-03T15:51:21.012Z,18.70
2022-10-03T15:53:51.825Z,18.20
2022-10-03T15:56:28.067Z,18.00
2022-10-03T15:59:05.893Z,17.90
2022-10-03T16:01:39.600Z,17.90
2022-10-03T16:04:16.395Z,17.80
2022-10-03T16:06:51.551Z,17.60
2022-10-03T16:09:33.393Z,17.50
2022-10-03T16:12:35.209Z,17.30
2022-10-03T16:15:20.803Z,17.10
2022-10-03T16:17:52.216Z,17.10
2022-10-03T16:20:34.085Z,16.90
2022-10-03T16:23:17.382Z,16.70
2022-10-03T16:25:57.625Z,16.60
2022-10-03T16:28:33.149Z,16.40
2022-10-03T16:31:06.026Z,16.30
2022-10-03T16:33:40.083Z,16.30
2022-10-03T16:36:18.132Z,16.20
2022-10-03T16:39:02.852Z,15.90
2022-10-03T16:41:44.023Z,15.70
2022-10-03T16:44:26.153Z,15.40
2022-10-03T16:46:59.727Z,15.00
2022-10-03T16:49:57.959Z,14.80
2022-10-03T16:52:34.656Z,14.50
2022-10-03T16:55:08.529Z,14.20
2022-10-03T16:57:47.988Z,14.10
2022-10-03T17:00:24.776Z,13.80
2022-10-03T17:02:57.116Z,13.70
2022-10-03T17:05:25.885Z,13.50
2022-10-03T17:08:06.644Z,13.30
2022-10-03T17:10:56.108Z,13.10
2022-10-03T17:13:31.981Z,12.90
2022-10-03T17:16:07.454Z,12.80
2022-10-03T17:18:45.821Z,12.50
2022-10-03T17:21:25.999Z,12.40
2022-10-03T17:24:05.437Z,12.30
2022-10-03T17:26:45.197Z,12.20
2022-10-03T17:29:19.594Z,12.10
2022-10-03T17:31:56.609Z,12.00
2022-10-03T17:34:33.757Z,11.90
2022-10-03T17:37:53.049Z,11.80
2022-10-03T17:40:51.606Z,11.60
2022-10-03T17:43:31.592Z,11.40
2022-10-03T17:46:07.893Z,11.20
2022-10-03T17:48:41.608Z,11.20
2022-10-03T17:51:40.356Z,11.10
2022-10-03T17:54:15.246Z,11.10
2022-10-03T17:56:47.058Z,11.10
2022-10-03T17:59:23.096Z,11.00
2022-10-03T18:01:57.938Z,10.80
2022-10-03T18:04:34.891Z,10.70
2022-10-03T18:07:13.406Z,10.70
2022-10-03T18:09:48.303Z,10.70
2022-10-03T18:12:35.286Z,10.70
2022-10-03T18:15:47.107Z,10.70
2022-10-03T18:19:07.155Z,10.70
2022-10-03T18:21:51.664Z,10.60
2022-10-03T18:24:56.656Z,10.50
2022-10-03T18:28:15.979Z,10.50
2022-10-03T18:30:57.557Z,10.50
2022-10-03T18:33:32.488Z,10.40
2022-10-03T18:36:16.756Z,10.40
2022-10-03T18:38:46.557Z,10.30
2022-10-03T18:41:19.236Z,10.20
2022-10-03T18:43:59.176Z,10.10
2022-10-03T18:46:33.799Z,10.10
2022-10-03T18:52:00.543Z,10.10
2022-10-03T18:54:45.760Z,10.00
2022-10-03T18:57:25.303Z,10.00
2022-10-03T19:00:01.728Z,9.90
2022-10-03T19:02:45.925Z,9.90
2022-10-03T19:05:21.884Z,9.90
2022-10-03T19:07:56.034Z,9.90
2022-10-03T19:10:45.633Z,9.90
2022-10-03T19:13:31.218Z,9.90
2022-10-03T19:16:20.517Z,10.00
2022-10-03T19:19:03.310Z,9.90
2022-10-03T19:21:43.372Z,9.80
2022-10-03T19:24:40.159Z,9.70
2022-10-03T19:27:20.680Z,9.70
2022-10-03T19:29:56.163Z,9.60
2022-10-03T19:32:31.731Z,9.40
2022-10-03T19:35:03.971Z,9.40
2022-10-03T19:37:45.468Z,9.40
2022-10-03T19:40:29.201Z,9.30
2022-10-03T19:43:05.212Z,9.30
2022-10-03T19:45:47.721Z,9.30
2022-10-03T19:48:18.465Z,9.30
2022-10-03T19:50:52.900Z,9.30
2022-10-03T19:53:35.088Z,9.20
2022-10-03T19:56:18.283Z,9.10
2022-10-03T19:59:02.661Z,9.10
2022-10-03T20:01:44.800Z,9.10
2022-10-03T20:04:36.151Z,9.10
2022-10-03T20:07:18.017Z,9.00
2022-10-03T20:09:58.908Z,8.80
2022-10-03T20:12:31.654Z,8.70
2022-10-03T20:15:23.575Z,8.60
2022-10-03T20:18:01.441Z,8.70
2022-10-03T20:20:32.227Z,8.80
2022-10-03T20:23:07.319Z,8.80
2022-10-03T20:25:41.888Z,8.70
2022-10-03T20:28:23.355Z,8.70
2022-10-03T20:30:54.435Z,8.60
2022-10-03T20:33:29.532Z,8.70
2022-10-03T20:36:05.274Z,8.70
2022-10-03T20:39:01.757Z,8.70
2022-10-03T20:41:50.470Z,8.70
2022-10-03T20:44:46.693Z,8.70
2022-10-03T20:47:44.400Z,8.70
2022-10-03T20:50:26.029Z,8.70
2022-10-03T20:53:00.896Z,8.70
2022-10-03T20:55:35.787Z,8.60
2022-10-03T20:58:18.775Z,8.50
2022-10-03T21:00:56.036Z,8.50
2022-10-03T21:03:34.760Z,8.40
2022-10-03T21:06:18.361Z,8.40
2022-10-03T21:08:48.012Z,8.30
2022-10-03T21:11:24.028Z,8.30
2022-10-03T21:14:15.423Z,8.30
2022-10-03T21:16:49.674Z,8.20
2022-10-03T21:19:24.522Z,8.20
2022-10-03T21:21:59.381Z,8.10
2022-10-03T21:24:31.581Z,8.00
2022-10-03T21:27:13.090Z,8.00
2022-10-03T21:29:54.135Z,8.00
2022-10-03T21:32:58.185Z,8.10
2022-10-03T21:35:31.380Z,8.00
2022-10-03T21:38:15.475Z,8.00
2022-10-03T21:40:59.879Z,7.90
2022-10-03T21:43:51.078Z,8.00
2022-10-03T21:46:30.483Z,8.10
2022-10-03T21:49:33.405Z,8.00
2022-10-03T21:52:30.084Z,8.10
2022-10-03T21:55:45.471Z,8.10
2022-10-03T21:58:45.388Z,8.10
2022-10-03T22:01:21.307Z,8.10
2022-10-03T22:04:00.098Z,8.10
2022-10-03T22:06:40.413Z,8.00
2022-10-03T22:09:17.092Z,8.00
2022-10-03T22:11:55.981Z,8.00
2022-10-03T22:14:47.087Z,7.90
2022-10-03T22:17:25.295Z,7.80
2022-10-03T22:20:10.389Z,7.80
2022-10-03T22:23:14.879Z,7.80
2022-10-03T22:26:04.764Z,7.80
2022-10-03T22:28:48.161Z,7.80
2022-10-03T22:31:26.544Z,7.90
2022-10-03T22:34:29.073Z,7.80
2022-10-03T22:36:58.921Z,7.80
2022-10-03T22:39:30.780Z,7.80
2022-10-03T22:42:03.025Z,7.70
2022-10-03T22:44:39.375Z,7.70
2022-10-03T22:47:14.272Z,7.80
2022-10-03T22:49:48.288Z,7.70
2022-10-03T22:52:23.943Z,7.70
2022-10-03T22:55:03.458Z,7.70
2022-10-03T22:57:40.503Z,7.70
2022-10-03T23:00:12.914Z,7.60
2022-10-03T23:02:48.310Z,7.60
2022-10-03T23:05:26.967Z,7.60
2022-10-03T23:08:12.091Z,7.50
2022-10-03T23:10:51.595Z,7.50
2022-10-03T23:13:38.257Z,7.40
2022-10-03T23:16:29.683Z,7.40
2022-10-03T23:19:11.716Z,7.50
2022-10-03T23:21:47.255Z,7.50
2022-10-03T23:24:24.659Z,7.40
2022-10-03T23:27:30.076Z,7.30
2022-10-03T23:30:54.139Z,7.30
2022-10-03T23:33:51.184Z,7.30
2022-10-03T23:36:24.852Z,7.30
2022-10-03T23:38:59.903Z,7.30
2022-10-03T23:41:47.288Z,7.30
2022-10-03T23:44:49.518Z,7.10
2022-10-03T23:47:24.176Z,7.10
2022-10-03T23:49:55.414Z,7.20
2022-10-03T23:52:33.992Z,7.20
2022-10-03T23:55:08.617Z,7.10
2022-10-03T23:57:44.496Z,7.00
